ANA622 RJFK-RJTT
Flight info
| Callsign | ANA622 |
|---|---|
| Flight time | 1h 12m |
| Altitude | 35000 |
| Route | MIDAI M750 BILLY Y21 AKSEL |
| Aircraft | B738/M-SDE2E3FGHIRWXY/LB1 |
Departure
| Time | 2026-05-04 11:38 |
|---|---|
| Airport | Kagoshima Airport (RJFK) |
Arrival
| Time | 2026-05-04 12:50 |
|---|---|
| Airport | Tokyo Haneda International Airport (RJTT) |
| Time | Latitude | Longitude | Altitude | Speed | Heading |
|---|---|---|---|---|---|
| 2026-05-04 10:54 | 31.80211 | 130.71623 | 893 ft | 0 kts | 240° |
| 2026-05-04 11:29 | 31.80219 | 130.71638 | 894 ft | 4 kts | 240° |
| 2026-05-04 11:29 | 31.80232 | 130.71666 | 895 ft | 3 kts | 239° |
| 2026-05-04 11:29 | 31.80245 | 130.71686 | 895 ft | 4 kts | 212° |
| 2026-05-04 11:31 | 31.80283 | 130.71681 | 895 ft | 0 kts | 149° |
| 2026-05-04 11:33 | 31.80282 | 130.71682 | 895 ft | 1 kts | 149° |
| 2026-05-04 11:34 | 31.80268 | 130.71699 | 895 ft | 6 kts | 118° |
| 2026-05-04 11:34 | 31.80233 | 130.71786 | 891 ft | 15 kts | 127° |
| 2026-05-04 11:34 | 31.80145 | 130.71848 | 891 ft | 17 kts | 150° |
| 2026-05-04 11:34 | 31.80024 | 130.71929 | 890 ft | 24 kts | 150° |
| 2026-05-04 11:35 | 31.79869 | 130.72034 | 887 ft | 27 kts | 150° |
| 2026-05-04 11:35 | 31.79690 | 130.72154 | 884 ft | 31 kts | 150° |
| 2026-05-04 11:35 | 31.79511 | 130.72275 | 884 ft | 27 kts | 150° |
| 2026-05-04 11:35 | 31.79356 | 130.72380 | 882 ft | 25 kts | 150° |
| 2026-05-04 11:36 | 31.79213 | 130.72477 | 882 ft | 23 kts | 150° |
| 2026-05-04 11:36 | 31.79118 | 130.72565 | 880 ft | 12 kts | 105° |
| 2026-05-04 11:36 | 31.79139 | 130.72638 | 878 ft | 10 kts | 60° |
| 2026-05-04 11:36 | 31.79172 | 130.72704 | 877 ft | 7 kts | 53° |
| 2026-05-04 11:37 | 31.79207 | 130.72704 | 878 ft | 0 kts | 332° |
| 2026-05-04 11:37 | 31.79255 | 130.72672 | 879 ft | 31 kts | 330° |
| 2026-05-04 11:37 | 31.79661 | 130.72398 | 885 ft | 103 kts | 330° |
| 2026-05-04 11:38 | 31.80463 | 130.71854 | 900 ft | 161 kts | 329° |
| 2026-05-04 11:38 | 31.81483 | 130.71143 | 1489 ft | 169 kts | 328° |
| 2026-05-04 11:38 | 31.82488 | 130.70479 | 2381 ft | 167 kts | 337° |
| 2026-05-04 11:38 | 31.83654 | 130.70504 | 2955 ft | 186 kts | 23° |
| 2026-05-04 11:39 | 31.84648 | 130.71652 | 3260 ft | 221 kts | 60° |
| 2026-05-04 11:39 | 31.84857 | 130.73539 | 3535 ft | 248 kts | 95° |
| 2026-05-04 11:40 | 31.79584 | 130.84526 | 7420 ft | 300 kts | 151° |
| 2026-05-04 11:41 | 31.77798 | 130.85768 | 8206 ft | 305 kts | 151° |
| 2026-05-04 11:41 | 31.75962 | 130.87053 | 9033 ft | 309 kts | 151° |
| 2026-05-04 11:41 | 31.74102 | 130.88369 | 9778 ft | 315 kts | 151° |
| 2026-05-04 11:41 | 31.72215 | 130.89713 | 10492 ft | 323 kts | 151° |
| 2026-05-04 11:42 | 31.70224 | 130.91139 | 10730 ft | 348 kts | 151° |
| 2026-05-04 11:42 | 31.68092 | 130.92672 | 10915 ft | 371 kts | 151° |
| 2026-05-04 11:42 | 31.65841 | 130.94293 | 11242 ft | 387 kts | 151° |
| 2026-05-04 11:42 | 31.63650 | 130.96188 | 11886 ft | 396 kts | 136° |
| 2026-05-04 11:43 | 31.62114 | 130.98831 | 12587 ft | 402 kts | 115° |
| 2026-05-04 11:43 | 31.61383 | 131.02001 | 13228 ft | 407 kts | 95° |
| 2026-05-04 11:43 | 31.61258 | 131.05342 | 13768 ft | 414 kts | 91° |
| 2026-05-04 11:43 | 31.61216 | 131.08544 | 14243 ft | 421 kts | 90° |
| 2026-05-04 11:44 | 31.61181 | 131.11999 | 14838 ft | 425 kts | 90° |
| 2026-05-04 11:44 | 31.61129 | 131.15492 | 15419 ft | 430 kts | 91° |
| 2026-05-04 11:44 | 31.61055 | 131.19025 | 15950 ft | 437 kts | 92° |
| 2026-05-04 11:44 | 31.60968 | 131.22602 | 16450 ft | 441 kts | 92° |
| 2026-05-04 11:45 | 31.60876 | 131.26164 | 16958 ft | 446 kts | 93° |
| 2026-05-04 11:45 | 31.60779 | 131.29808 | 17451 ft | 451 kts | 93° |
| 2026-05-04 11:45 | 31.60682 | 131.33526 | 17822 ft | 459 kts | 91° |
| 2026-05-04 11:45 | 31.61040 | 131.37258 | 18281 ft | 464 kts | 74° |
| 2026-05-04 11:46 | 31.62304 | 131.40738 | 18736 ft | 465 kts | 57° |
| 2026-05-04 11:46 | 31.63974 | 131.44008 | 19220 ft | 469 kts | 56° |
| 2026-05-04 11:46 | 31.65706 | 131.47290 | 19580 ft | 476 kts | 55° |
| 2026-05-04 11:46 | 31.67442 | 131.50565 | 19991 ft | 481 kts | 56° |
| 2026-05-04 11:47 | 31.69206 | 131.53920 | 20394 ft | 486 kts | 56° |
| 2026-05-04 11:47 | 31.70975 | 131.57327 | 20784 ft | 491 kts | 56° |
| 2026-05-04 11:47 | 31.72752 | 131.60783 | 21105 ft | 497 kts | 57° |
| 2026-05-04 11:47 | 31.74540 | 131.64286 | 21452 ft | 502 kts | 57° |
| 2026-05-04 11:48 | 31.76338 | 131.67822 | 21833 ft | 506 kts | 57° |
| 2026-05-04 11:48 | 31.78147 | 131.71382 | 22165 ft | 510 kts | 57° |
| 2026-05-04 11:48 | 31.79974 | 131.74981 | 22457 ft | 515 kts | 58° |
| 2026-05-04 11:48 | 31.81794 | 131.78571 | 22766 ft | 519 kts | 58° |
| 2026-05-04 11:49 | 31.83651 | 131.82236 | 23055 ft | 524 kts | 58° |
| 2026-05-04 11:49 | 31.85520 | 131.85925 | 23342 ft | 528 kts | 58° |
| 2026-05-04 11:49 | 31.87404 | 131.89648 | 23613 ft | 532 kts | 58° |
| 2026-05-04 11:49 | 31.89300 | 131.93399 | 23872 ft | 535 kts | 58° |
| 2026-05-04 11:50 | 31.91209 | 131.97176 | 24123 ft | 539 kts | 58° |
| 2026-05-04 11:50 | 31.93130 | 132.00984 | 24390 ft | 542 kts | 58° |
| 2026-05-04 11:50 | 31.95057 | 132.04807 | 24712 ft | 543 kts | 59° |
| 2026-05-04 11:50 | 31.96966 | 132.08594 | 25001 ft | 546 kts | 59° |
| 2026-05-04 11:51 | 31.98907 | 132.12448 | 25283 ft | 548 kts | 59° |
| 2026-05-04 11:51 | 32.00849 | 132.16314 | 25575 ft | 550 kts | 59° |
| 2026-05-04 11:51 | 32.02800 | 132.20201 | 25859 ft | 552 kts | 59° |
| 2026-05-04 11:51 | 32.04758 | 132.24105 | 26114 ft | 554 kts | 59° |
| 2026-05-04 11:52 | 32.06718 | 132.28017 | 26355 ft | 556 kts | 59° |
| 2026-05-04 11:52 | 32.08688 | 132.31954 | 26613 ft | 558 kts | 59° |
| 2026-05-04 11:52 | 32.10665 | 132.35908 | 26845 ft | 560 kts | 59° |
| 2026-05-04 11:52 | 32.12640 | 132.39881 | 27071 ft | 563 kts | 60° |
| 2026-05-04 11:53 | 32.14471 | 132.43893 | 27319 ft | 564 kts | 63° |
| 2026-05-04 11:53 | 32.16243 | 132.48026 | 27553 ft | 565 kts | 64° |
| 2026-05-04 11:53 | 32.17977 | 132.52201 | 27752 ft | 568 kts | 65° |
| 2026-05-04 11:53 | 32.19705 | 132.56396 | 27937 ft | 570 kts | 65° |
| 2026-05-04 11:55 | 32.32044 | 132.85800 | 29930 ft | 570 kts | 65° |
| 2026-05-04 11:55 | 32.33810 | 132.90002 | 30232 ft | 570 kts | 65° |
| 2026-05-04 11:56 | 32.35570 | 132.94199 | 30541 ft | 570 kts | 65° |
| 2026-05-04 11:56 | 32.37329 | 132.98401 | 30823 ft | 570 kts | 65° |
| 2026-05-04 11:56 | 32.39086 | 133.02604 | 31071 ft | 571 kts | 65° |
| 2026-05-04 11:56 | 32.40850 | 133.06826 | 31342 ft | 572 kts | 65° |
| 2026-05-04 11:57 | 32.42608 | 133.11040 | 31650 ft | 571 kts | 65° |
| 2026-05-04 11:57 | 32.44341 | 133.15195 | 31949 ft | 571 kts | 65° |
| 2026-05-04 11:57 | 32.46095 | 133.19408 | 32249 ft | 570 kts | 65° |
| 2026-05-04 11:57 | 32.47847 | 133.23622 | 32537 ft | 570 kts | 65° |
| 2026-05-04 11:58 | 32.49597 | 133.27837 | 32809 ft | 570 kts | 65° |
| 2026-05-04 11:58 | 32.51347 | 133.32057 | 33071 ft | 571 kts | 65° |
| 2026-05-04 11:58 | 32.53095 | 133.36276 | 33334 ft | 571 kts | 65° |
| 2026-05-04 11:58 | 32.54842 | 133.40498 | 33629 ft | 570 kts | 65° |
| 2026-05-04 11:59 | 32.56586 | 133.44716 | 33897 ft | 570 kts | 65° |
| 2026-05-04 11:59 | 32.58330 | 133.48938 | 34134 ft | 570 kts | 65° |
| 2026-05-04 11:59 | 32.60047 | 133.53103 | 34410 ft | 569 kts | 65° |
| 2026-05-04 11:59 | 32.61781 | 133.57311 | 34710 ft | 568 kts | 65° |
| 2026-05-04 12:00 | 32.63512 | 133.61516 | 34972 ft | 567 kts | 65° |
| 2026-05-04 12:00 | 32.66986 | 133.69971 | 35032 ft | 572 kts | 65° |
| 2026-05-04 12:01 | 32.70452 | 133.78428 | 35027 ft | 567 kts | 65° |
| 2026-05-04 12:02 | 32.82333 | 134.07751 | 35032 ft | 563 kts | 70° |
| 2026-05-04 12:03 | 32.84716 | 134.16589 | 35031 ft | 560 kts | 77° |
| 2026-05-04 12:03 | 32.86810 | 134.25447 | 35029 ft | 561 kts | 78° |
| 2026-05-04 12:04 | 32.88964 | 134.34379 | 35026 ft | 562 kts | 77° |
| 2026-05-04 12:04 | 32.91177 | 134.43314 | 35020 ft | 564 kts | 77° |
| 2026-05-04 12:05 | 32.93404 | 134.52283 | 35016 ft | 565 kts | 77° |
| 2026-05-04 12:05 | 32.95605 | 134.61204 | 35019 ft | 566 kts | 78° |
| 2026-05-04 12:06 | 32.97811 | 134.70202 | 35010 ft | 566 kts | 78° |
| 2026-05-04 12:06 | 33.00014 | 134.79206 | 35007 ft | 566 kts | 78° |
| 2026-05-04 12:07 | 33.02211 | 134.88220 | 35004 ft | 566 kts | 78° |
| 2026-05-04 12:07 | 33.04380 | 134.97157 | 34999 ft | 565 kts | 78° |
| 2026-05-04 12:08 | 33.06557 | 135.06151 | 35000 ft | 564 kts | 78° |
| 2026-05-04 12:08 | 33.08725 | 135.15139 | 34997 ft | 563 kts | 78° |
| 2026-05-04 12:09 | 33.10858 | 135.24116 | 34996 ft | 562 kts | 79° |
| 2026-05-04 12:09 | 33.12839 | 135.33057 | 34996 ft | 561 kts | 80° |
| 2026-05-04 12:10 | 33.14796 | 135.42067 | 34995 ft | 560 kts | 80° |
| 2026-05-04 12:10 | 33.16764 | 135.51062 | 34989 ft | 560 kts | 80° |
| 2026-05-04 12:11 | 33.18741 | 135.60060 | 34988 ft | 560 kts | 80° |
| 2026-05-04 12:11 | 33.20695 | 135.68993 | 34991 ft | 560 kts | 80° |
| 2026-05-04 12:12 | 33.22655 | 135.77996 | 34987 ft | 560 kts | 80° |
| 2026-05-04 12:12 | 33.24610 | 135.87005 | 34999 ft | 561 kts | 80° |
| 2026-05-04 12:14 | 33.32369 | 136.23106 | 35017 ft | 562 kts | 80° |
| 2026-05-04 12:15 | 33.34297 | 136.32166 | 35018 ft | 562 kts | 80° |
| 2026-05-04 12:15 | 33.36216 | 136.41211 | 35018 ft | 561 kts | 81° |
| 2026-05-04 12:16 | 33.38115 | 136.50205 | 35020 ft | 561 kts | 81° |
| 2026-05-04 12:16 | 33.40019 | 136.59250 | 35018 ft | 560 kts | 81° |
| 2026-05-04 12:17 | 33.41914 | 136.68292 | 35016 ft | 559 kts | 81° |
| 2026-05-04 12:17 | 33.43799 | 136.77324 | 35011 ft | 559 kts | 81° |
| 2026-05-04 12:18 | 33.45674 | 136.86338 | 34996 ft | 558 kts | 81° |
| 2026-05-04 12:18 | 33.47530 | 136.95299 | 34951 ft | 558 kts | 81° |
| 2026-05-04 12:19 | 33.49389 | 137.04313 | 34947 ft | 557 kts | 81° |
| 2026-05-04 12:19 | 33.51238 | 137.13302 | 34947 ft | 555 kts | 81° |
| 2026-05-04 12:20 | 33.53077 | 137.22284 | 34934 ft | 554 kts | 81° |
| 2026-05-04 12:20 | 33.54893 | 137.31197 | 34932 ft | 553 kts | 81° |
| 2026-05-04 12:21 | 33.56708 | 137.40140 | 34938 ft | 551 kts | 81° |
| 2026-05-04 12:21 | 33.58514 | 137.49064 | 34940 ft | 551 kts | 81° |
| 2026-05-04 12:22 | 33.60317 | 137.58001 | 34933 ft | 551 kts | 81° |
| 2026-05-04 12:22 | 33.63027 | 137.66647 | 34919 ft | 559 kts | 64° |
| 2026-05-04 12:23 | 33.66817 | 137.74740 | 34921 ft | 560 kts | 62° |
| 2026-05-04 12:23 | 33.70673 | 137.82869 | 34923 ft | 560 kts | 63° |
| 2026-05-04 12:24 | 33.74444 | 137.91052 | 34920 ft | 560 kts | 63° |
| 2026-05-04 12:24 | 33.78177 | 137.99279 | 34922 ft | 560 kts | 63° |
| 2026-05-04 12:25 | 33.81908 | 138.07509 | 34919 ft | 561 kts | 63° |
| 2026-05-04 12:25 | 33.85619 | 138.15694 | 34912 ft | 561 kts | 63° |
| 2026-05-04 12:26 | 33.89351 | 138.23941 | 34904 ft | 561 kts | 63° |
| 2026-05-04 12:26 | 33.93070 | 138.32200 | 34865 ft | 562 kts | 64° |
| 2026-05-04 12:27 | 33.96771 | 138.40517 | 34338 ft | 567 kts | 64° |
| 2026-05-04 12:27 | 33.98630 | 138.44708 | 33696 ft | 566 kts | 64° |
| 2026-05-04 12:27 | 34.00483 | 138.48889 | 33020 ft | 566 kts | 64° |
| 2026-05-04 12:28 | 34.02336 | 138.53071 | 32324 ft | 566 kts | 64° |
| 2026-05-04 12:28 | 34.04192 | 138.57264 | 31592 ft | 567 kts | 64° |
| 2026-05-04 12:28 | 34.06051 | 138.61466 | 30836 ft | 568 kts | 64° |
| 2026-05-04 12:28 | 34.07885 | 138.65618 | 30070 ft | 570 kts | 64° |
| 2026-05-04 12:29 | 34.09751 | 138.69844 | 29269 ft | 571 kts | 64° |
| 2026-05-04 12:29 | 34.11618 | 138.74079 | 28420 ft | 572 kts | 63° |
| 2026-05-04 12:29 | 34.13486 | 138.78320 | 27536 ft | 574 kts | 63° |
| 2026-05-04 12:29 | 34.15359 | 138.82581 | 26614 ft | 575 kts | 63° |
| 2026-05-04 12:30 | 34.17236 | 138.86857 | 25635 ft | 577 kts | 63° |
| 2026-05-04 12:30 | 34.19115 | 138.91140 | 24584 ft | 579 kts | 63° |
| 2026-05-04 12:30 | 34.20998 | 138.95438 | 23782 ft | 576 kts | 63° |
| 2026-05-04 12:30 | 34.22890 | 138.99672 | 23166 ft | 568 kts | 60° |
| 2026-05-04 12:31 | 34.24897 | 139.03709 | 22935 ft | 553 kts | 58° |
| 2026-05-04 12:31 | 34.26976 | 139.07633 | 22696 ft | 559 kts | 56° |
| 2026-05-04 12:31 | 34.29090 | 139.11530 | 22290 ft | 562 kts | 56° |
| 2026-05-04 12:31 | 34.31225 | 139.15467 | 21539 ft | 558 kts | 56° |
| 2026-05-04 12:32 | 34.33325 | 139.19386 | 20823 ft | 552 kts | 57° |
| 2026-05-04 12:32 | 34.37418 | 139.27147 | 19361 ft | 542 kts | 57° |
| 2026-05-04 12:32 | 34.39428 | 139.30998 | 18627 ft | 537 kts | 57° |
| 2026-05-04 12:33 | 34.41410 | 139.34806 | 17890 ft | 533 kts | 57° |
| 2026-05-04 12:33 | 34.43371 | 139.38577 | 17164 ft | 528 kts | 57° |
| 2026-05-04 12:33 | 34.45548 | 139.42096 | 16821 ft | 512 kts | 46° |
| 2026-05-04 12:33 | 34.48032 | 139.45105 | 16387 ft | 499 kts | 37° |
| 2026-05-04 12:34 | 34.50779 | 139.47635 | 15552 ft | 493 kts | 27° |
| 2026-05-04 12:34 | 34.53638 | 139.49795 | 14864 ft | 489 kts | 27° |
| 2026-05-04 12:34 | 34.56505 | 139.51959 | 14311 ft | 482 kts | 27° |
| 2026-05-04 12:34 | 34.59325 | 139.54113 | 13721 ft | 476 kts | 28° |
| 2026-05-04 12:35 | 34.62102 | 139.56258 | 13130 ft | 470 kts | 28° |
| 2026-05-04 12:35 | 34.64828 | 139.58383 | 12528 ft | 464 kts | 28° |
| 2026-05-04 12:35 | 34.67533 | 139.60500 | 11920 ft | 459 kts | 29° |
| 2026-05-04 12:35 | 34.70198 | 139.62589 | 11335 ft | 453 kts | 29° |
| 2026-05-04 12:36 | 34.72889 | 139.64428 | 11116 ft | 433 kts | 19° |
| 2026-05-04 12:36 | 34.75639 | 139.65618 | 11008 ft | 405 kts | 10° |
| 2026-05-04 12:36 | 34.78265 | 139.66528 | 10855 ft | 381 kts | 9° |
| 2026-05-04 12:36 | 34.80752 | 139.67372 | 10722 ft | 360 kts | 8° |
| 2026-05-04 12:37 | 34.83070 | 139.68160 | 10600 ft | 342 kts | 8° |
| 2026-05-04 12:37 | 34.85302 | 139.68928 | 10489 ft | 325 kts | 8° |
| 2026-05-04 12:37 | 34.87431 | 139.69667 | 10260 ft | 314 kts | 8° |
| 2026-05-04 12:37 | 34.89511 | 139.70388 | 9882 ft | 311 kts | 9° |
| 2026-05-04 12:38 | 34.91582 | 139.71108 | 9667 ft | 306 kts | 9° |
| 2026-05-04 12:38 | 34.93607 | 139.71816 | 9467 ft | 301 kts | 9° |
| 2026-05-04 12:38 | 34.95616 | 139.72522 | 9202 ft | 299 kts | 9° |
| 2026-05-04 12:38 | 34.97602 | 139.73223 | 8960 ft | 296 kts | 9° |
| 2026-05-04 12:39 | 34.99570 | 139.73918 | 8729 ft | 293 kts | 10° |
| 2026-05-04 12:39 | 35.01521 | 139.74610 | 8459 ft | 290 kts | 10° |
| 2026-05-04 12:39 | 35.03455 | 139.75295 | 8182 ft | 289 kts | 10° |
| 2026-05-04 12:39 | 35.05401 | 139.75762 | 7914 ft | 282 kts | 359° |
| 2026-05-04 12:40 | 35.07302 | 139.75930 | 7566 ft | 275 kts | 357° |
| 2026-05-04 12:40 | 35.09178 | 139.76041 | 7406 ft | 262 kts | 356° |
| 2026-05-04 12:40 | 35.10935 | 139.76150 | 7323 ft | 243 kts | 356° |
| 2026-05-04 12:40 | 35.12566 | 139.76263 | 7188 ft | 227 kts | 357° |
| 2026-05-04 12:41 | 35.14094 | 139.76377 | 6962 ft | 216 kts | 356° |
| 2026-05-04 12:41 | 35.15588 | 139.76490 | 6581 ft | 214 kts | 357° |
| 2026-05-04 12:41 | 35.17065 | 139.76606 | 6211 ft | 211 kts | 357° |
| 2026-05-04 12:41 | 35.18491 | 139.76724 | 5986 ft | 201 kts | 357° |
| 2026-05-04 12:42 | 35.19876 | 139.76838 | 5635 ft | 198 kts | 357° |
| 2026-05-04 12:42 | 35.21208 | 139.76951 | 5487 ft | 190 kts | 358° |
| 2026-05-04 12:42 | 35.22531 | 139.77062 | 5390 ft | 193 kts | 358° |
| 2026-05-04 12:42 | 35.23884 | 139.77176 | 5337 ft | 197 kts | 358° |
| 2026-05-04 12:43 | 35.25262 | 139.77292 | 5173 ft | 200 kts | 358° |
| 2026-05-04 12:43 | 35.26401 | 139.77392 | 5039 ft | 198 kts | 359° |
| 2026-05-04 12:43 | 35.27756 | 139.77511 | 4860 ft | 195 kts | 359° |
| 2026-05-04 12:43 | 35.29029 | 139.77622 | 4675 ft | 192 kts | 359° |
| 2026-05-04 12:44 | 35.30330 | 139.77736 | 4512 ft | 190 kts | 359° |
| 2026-05-04 12:44 | 35.31554 | 139.77894 | 4324 ft | 193 kts | 11° |
| 2026-05-04 12:44 | 35.32630 | 139.78625 | 4198 ft | 194 kts | 28° |
| 2026-05-04 12:44 | 35.33782 | 139.79536 | 3984 ft | 195 kts | 27° |
| 2026-05-04 12:45 | 35.34930 | 139.80422 | 3791 ft | 195 kts | 27° |
| 2026-05-04 12:45 | 35.36076 | 139.81306 | 3581 ft | 193 kts | 27° |
| 2026-05-04 12:45 | 35.37201 | 139.82176 | 3378 ft | 189 kts | 27° |
| 2026-05-04 12:45 | 35.38297 | 139.83029 | 3183 ft | 183 kts | 27° |
| 2026-05-04 12:46 | 35.39348 | 139.83846 | 2989 ft | 175 kts | 26° |
| 2026-05-04 12:46 | 35.40363 | 139.84634 | 2796 ft | 171 kts | 26° |
| 2026-05-04 12:46 | 35.41423 | 139.85138 | 2584 ft | 160 kts | 355° |
| 2026-05-04 12:46 | 35.42526 | 139.85095 | 2457 ft | 160 kts | 356° |
| 2026-05-04 12:47 | 35.43627 | 139.85093 | 2251 ft | 160 kts | 354° |
| 2026-05-04 12:47 | 35.44664 | 139.84696 | 2044 ft | 154 kts | 334° |
| 2026-05-04 12:47 | 35.45611 | 139.84171 | 1830 ft | 145 kts | 336° |
| 2026-05-04 12:47 | 35.46489 | 139.83652 | 1649 ft | 138 kts | 333° |
| 2026-05-04 12:48 | 35.47307 | 139.83096 | 1473 ft | 133 kts | 332° |
| 2026-05-04 12:48 | 35.48099 | 139.82535 | 1331 ft | 128 kts | 333° |
| 2026-05-04 12:48 | 35.48866 | 139.81988 | 1144 ft | 128 kts | 333° |
| 2026-05-04 12:48 | 35.49643 | 139.81434 | 962 ft | 129 kts | 333° |
| 2026-05-04 12:49 | 35.50396 | 139.80896 | 794 ft | 126 kts | 333° |
| 2026-05-04 12:49 | 35.51157 | 139.80354 | 628 ft | 128 kts | 333° |
| 2026-05-04 12:49 | 35.51930 | 139.79802 | 453 ft | 130 kts | 333° |
| 2026-05-04 12:49 | 35.52714 | 139.79242 | 284 ft | 131 kts | 332° |
| 2026-05-04 12:50 | 35.53504 | 139.78677 | 112 ft | 132 kts | 332° |
| 2026-05-04 12:50 | 35.54279 | 139.78126 | 25 ft | 119 kts | 329° |
| 2026-05-04 12:50 | 35.54828 | 139.77738 | 20 ft | 59 kts | 330° |
| 2026-05-04 12:50 | 35.55112 | 139.77536 | 22 ft | 39 kts | 330° |
| 2026-05-04 12:51 | 35.55325 | 139.77399 | 21 ft | 31 kts | 338° |
| 2026-05-04 12:51 | 35.55481 | 139.77355 | 20 ft | 14 kts | 355° |
| 2026-05-04 12:51 | 35.55570 | 139.77353 | 21 ft | 12 kts | 360° |
| 2026-05-04 12:51 | 35.55655 | 139.77353 | 20 ft | 12 kts | 360° |
| 2026-05-04 12:52 | 35.55733 | 139.77348 | 21 ft | 10 kts | 343° |
| 2026-05-04 12:52 | 35.55795 | 139.77313 | 21 ft | 9 kts | 353° |
| 2026-05-04 12:52 | 35.55850 | 139.77351 | 22 ft | 9 kts | 50° |
| 2026-05-04 12:52 | 35.55887 | 139.77427 | 23 ft | 13 kts | 60° |
| 2026-05-04 12:53 | 35.55939 | 139.77537 | 22 ft | 17 kts | 60° |
| 2026-05-04 12:53 | 35.56004 | 139.77672 | 23 ft | 20 kts | 59° |
| 2026-05-04 12:53 | 35.56077 | 139.77827 | 27 ft | 22 kts | 60° |
| 2026-05-04 12:53 | 35.56156 | 139.77994 | 27 ft | 21 kts | 59° |
| 2026-05-04 12:54 | 35.56226 | 139.78142 | 24 ft | 19 kts | 60° |
| 2026-05-04 12:54 | 35.56246 | 139.78272 | 23 ft | 16 kts | 133° |
| 2026-05-04 12:54 | 35.56151 | 139.78345 | 25 ft | 16 kts | 149° |
| 2026-05-04 12:54 | 35.56058 | 139.78411 | 24 ft | 15 kts | 150° |
| 2026-05-04 12:55 | 35.55968 | 139.78475 | 23 ft | 15 kts | 150° |
| 2026-05-04 12:55 | 35.55888 | 139.78530 | 21 ft | 10 kts | 162° |
| 2026-05-04 12:55 | 35.55845 | 139.78492 | 22 ft | 6 kts | 240° |
| 2026-05-04 12:55 | 35.55832 | 139.78464 | 21 ft | 3 kts | 240° |
| 2026-05-04 12:56 | 35.55828 | 139.78454 | 21 ft | 1 kts | 240° |
| 2026-05-04 12:56 | 35.55825 | 139.78449 | 23 ft | 1 kts | 240° |
| 2026-05-04 12:56 | 35.55824 | 139.78447 | 21 ft | 0 kts | 239° |